sensor_id;sensor_type;location;lat;lon;timestamp;P1;durP1;ratioP1;P2;durP2;ratioP2
72319;SDS011;60269;52.502;16.732;2022-12-13T00:00:36;6.95;;;2.00;;
72319;SDS011;60269;52.502;16.732;2022-12-13T00:04:25;10.02;;;2.38;;
72319;SDS011;60269;52.502;16.732;2022-12-13T00:08:00;15.37;;;1.53;;
72319;SDS011;60269;52.502;16.732;2022-12-13T00:11:33;5.53;;;1.80;;
72319;SDS011;60269;52.502;16.732;2022-12-13T00:15:05;4.65;;;1.42;;
72319;SDS011;60269;52.502;16.732;2022-12-13T00:18:38;7.28;;;2.72;;
72319;SDS011;60269;52.502;16.732;2022-12-13T00:22:11;4.27;;;1.20;;
72319;SDS011;60269;52.502;16.732;2022-12-13T00:25:44;9.45;;;1.88;;
72319;SDS011;60269;52.502;16.732;2022-12-13T00:29:16;6.47;;;2.00;;
72319;SDS011;60269;52.502;16.732;2022-12-13T00:32:48;5.83;;;1.20;;
72319;SDS011;60269;52.502;16.732;2022-12-13T00:36:20;12.10;;;2.35;;
72319;SDS011;60269;52.502;16.732;2022-12-13T00:39:53;8.63;;;2.13;;
72319;SDS011;60269;52.502;16.732;2022-12-13T00:43:26;8.97;;;2.10;;
72319;SDS011;60269;52.502;16.732;2022-12-13T00:46:59;8.20;;;1.45;;
72319;SDS011;60269;52.502;16.732;2022-12-13T00:50:32;5.57;;;1.27;;
72319;SDS011;60269;52.502;16.732;2022-12-13T00:54:05;4.35;;;1.23;;
72319;SDS011;60269;52.502;16.732;2022-12-13T00:57:37;6.73;;;1.93;;
72319;SDS011;60269;52.502;16.732;2022-12-13T01:01:14;7.20;;;1.30;;
72319;SDS011;60269;52.502;16.732;2022-12-13T01:04:50;3.80;;;1.10;;
72319;SDS011;60269;52.502;16.732;2022-12-13T01:08:22;10.90;;;1.83;;
72319;SDS011;60269;52.502;16.732;2022-12-13T01:12:02;7.65;;;1.67;;
72319;SDS011;60269;52.502;16.732;2022-12-13T01:15:40;8.20;;;2.58;;
72319;SDS011;60269;52.502;16.732;2022-12-13T01:19:13;5.37;;;1.07;;
72319;SDS011;60269;52.502;16.732;2022-12-13T01:22:46;5.13;;;1.27;;
72319;SDS011;60269;52.502;16.732;2022-12-13T01:26:18;6.45;;;1.52;;
72319;SDS011;60269;52.502;16.732;2022-12-13T01:29:52;3.33;;;0.73;;
72319;SDS011;60269;52.502;16.732;2022-12-13T01:33:24;4.43;;;1.07;;
72319;SDS011;60269;52.502;16.732;2022-12-13T01:36:57;4.97;;;1.05;;
72319;SDS011;60269;52.502;16.732;2022-12-13T01:40:29;5.55;;;1.23;;
72319;SDS011;60269;52.502;16.732;2022-12-13T01:44:05;3.47;;;0.90;;
72319;SDS011;60269;52.502;16.732;2022-12-13T01:47:58;6.40;;;1.63;;
72319;SDS011;60269;52.502;16.732;2022-12-13T01:51:58;7.18;;;1.25;;
72319;SDS011;60269;52.502;16.732;2022-12-13T01:55:30;4.33;;;1.27;;
72319;SDS011;60269;52.502;16.732;2022-12-13T01:59:12;6.43;;;2.15;;
72319;SDS011;60269;52.502;16.732;2022-12-13T02:02:48;9.10;;;1.17;;
72319;SDS011;60269;52.502;16.732;2022-12-13T02:06:26;3.80;;;0.80;;
72319;SDS011;60269;52.502;16.732;2022-12-13T02:10:20;7.00;;;1.53;;
72319;SDS011;60269;52.502;16.732;2022-12-13T02:13:53;4.93;;;1.77;;
72319;SDS011;60269;52.502;16.732;2022-12-13T02:33:07;8.03;;;0.87;;
72319;SDS011;60269;52.502;16.732;2022-12-13T02:36:56;3.67;;;0.80;;
72319;SDS011;60269;52.502;16.732;2022-12-13T02:40:53;2.20;;;0.68;;
72319;SDS011;60269;52.502;16.732;2022-12-13T02:48:31;1.83;;;0.60;;
72319;SDS011;60269;52.502;16.732;2022-12-13T02:52:07;4.05;;;0.77;;
72319;SDS011;60269;52.502;16.732;2022-12-13T02:55:43;2.15;;;0.50;;
72319;SDS011;60269;52.502;16.732;2022-12-13T02:59:15;3.87;;;0.87;;
72319;SDS011;60269;52.502;16.732;2022-12-13T03:10:42;4.50;;;0.80;;
72319;SDS011;60269;52.502;16.732;2022-12-13T03:14:30;1.95;;;0.47;;
72319;SDS011;60269;52.502;16.732;2022-12-13T03:18:08;5.78;;;1.00;;
72319;SDS011;60269;52.502;16.732;2022-12-13T03:21:48;6.53;;;1.63;;
72319;SDS011;60269;52.502;16.732;2022-12-13T03:25:20;4.73;;;1.07;;
72319;SDS011;60269;52.502;16.732;2022-12-13T03:29:03;4.40;;;1.23;;
72319;SDS011;60269;52.502;16.732;2022-12-13T03:32:36;5.03;;;0.75;;
72319;SDS011;60269;52.502;16.732;2022-12-13T03:36:08;4.40;;;1.13;;
72319;SDS011;60269;52.502;16.732;2022-12-13T03:39:41;5.43;;;1.25;;
72319;SDS011;60269;52.502;16.732;2022-12-13T03:43:14;3.30;;;0.70;;
72319;SDS011;60269;52.502;16.732;2022-12-13T03:46:53;2.73;;;0.80;;
72319;SDS011;60269;52.502;16.732;2022-12-13T03:50:31;4.68;;;0.90;;
72319;SDS011;60269;52.502;16.732;2022-12-13T03:54:03;5.07;;;1.25;;
72319;SDS011;60269;52.502;16.732;2022-12-13T03:57:35;4.40;;;0.90;;
72319;SDS011;60269;52.502;16.732;2022-12-13T04:01:08;6.20;;;1.07;;
72319;SDS011;60269;52.502;16.732;2022-12-13T04:04:42;4.03;;;0.85;;
72319;SDS011;60269;52.502;16.732;2022-12-13T04:08:14;1.90;;;0.63;;
72319;SDS011;60269;52.502;16.732;2022-12-13T04:11:53;5.47;;;1.00;;
72319;SDS011;60269;52.502;16.732;2022-12-13T04:15:43;2.33;;;1.10;;
72319;SDS011;60269;52.502;16.732;2022-12-13T04:19:19;2.78;;;0.65;;
72319;SDS011;60269;52.502;16.732;2022-12-13T04:22:54;4.83;;;0.83;;
72319;SDS011;60269;52.502;16.732;2022-12-13T04:26:27;4.18;;;1.42;;
72319;SDS011;60269;52.502;16.732;2022-12-13T04:30:00;7.00;;;1.13;;
72319;SDS011;60269;52.502;16.732;2022-12-13T04:33:32;2.90;;;0.73;;
72319;SDS011;60269;52.502;16.732;2022-12-13T04:37:04;1.97;;;0.33;;
72319;SDS011;60269;52.502;16.732;2022-12-13T04:40:36;7.25;;;1.50;;
72319;SDS011;60269;52.502;16.732;2022-12-13T04:44:09;4.28;;;1.27;;
72319;SDS011;60269;52.502;16.732;2022-12-13T04:48:00;6.40;;;1.57;;
72319;SDS011;60269;52.502;16.732;2022-12-13T04:51:32;8.90;;;2.17;;
72319;SDS011;60269;52.502;16.732;2022-12-13T04:55:05;3.25;;;0.65;;
72319;SDS011;60269;52.502;16.732;2022-12-13T04:58:39;5.30;;;1.13;;
72319;SDS011;60269;52.502;16.732;2022-12-13T05:02:12;3.97;;;1.13;;
72319;SDS011;60269;52.502;16.732;2022-12-13T05:05:54;2.65;;;0.63;;
72319;SDS011;60269;52.502;16.732;2022-12-13T05:09:26;1.63;;;0.45;;
72319;SDS011;60269;52.502;16.732;2022-12-13T05:12:58;5.83;;;1.30;;
72319;SDS011;60269;52.502;16.732;2022-12-13T05:16:31;3.10;;;0.75;;
72319;SDS011;60269;52.502;16.732;2022-12-13T05:20:03;4.15;;;1.10;;
72319;SDS011;60269;52.502;16.732;2022-12-13T05:23:35;2.90;;;0.63;;
72319;SDS011;60269;52.502;16.732;2022-12-13T05:27:08;4.53;;;1.42;;
72319;SDS011;60269;52.502;16.732;2022-12-13T05:30:58;6.93;;;1.77;;
72319;SDS011;60269;52.502;16.732;2022-12-13T05:34:54;3.30;;;0.83;;
72319;SDS011;60269;52.502;16.732;2022-12-13T05:38:27;5.35;;;1.20;;
72319;SDS011;60269;52.502;16.732;2022-12-13T05:41:59;3.15;;;0.77;;
72319;SDS011;60269;52.502;16.732;2022-12-13T05:45:34;4.45;;;1.00;;
72319;SDS011;60269;52.502;16.732;2022-12-13T05:49:06;3.37;;;1.07;;
72319;SDS011;60269;52.502;16.732;2022-12-13T05:52:38;2.88;;;1.02;;
72319;SDS011;60269;52.502;16.732;2022-12-13T05:56:11;4.32;;;1.17;;
72319;SDS011;60269;52.502;16.732;2022-12-13T05:59:53;3.43;;;0.57;;
72319;SDS011;60269;52.502;16.732;2022-12-13T06:03:25;6.45;;;1.73;;
72319;SDS011;60269;52.502;16.732;2022-12-13T06:06:57;3.72;;;0.98;;
72319;SDS011;60269;52.502;16.732;2022-12-13T06:10:29;3.63;;;0.80;;
72319;SDS011;60269;52.502;16.732;2022-12-13T06:14:06;8.23;;;1.50;;
72319;SDS011;60269;52.502;16.732;2022-12-13T06:17:53;7.68;;;2.40;;
72319;SDS011;60269;52.502;16.732;2022-12-13T06:21:25;6.05;;;0.75;;
72319;SDS011;60269;52.502;16.732;2022-12-13T06:24:57;7.80;;;1.40;;
72319;SDS011;60269;52.502;16.732;2022-12-13T06:28:29;3.10;;;1.05;;
72319;SDS011;60269;52.502;16.732;2022-12-13T06:32:01;10.18;;;1.77;;
72319;SDS011;60269;52.502;16.732;2022-12-13T06:35:34;2.97;;;0.83;;
72319;SDS011;60269;52.502;16.732;2022-12-13T06:39:11;5.65;;;1.75;;
72319;SDS011;60269;52.502;16.732;2022-12-13T06:42:46;3.92;;;1.23;;
72319;SDS011;60269;52.502;16.732;2022-12-13T06:46:17;4.97;;;1.43;;
72319;SDS011;60269;52.502;16.732;2022-12-13T06:49:50;4.60;;;1.70;;
72319;SDS011;60269;52.502;16.732;2022-12-13T06:53:21;5.70;;;1.30;;
72319;SDS011;60269;52.502;16.732;2022-12-13T06:56:55;2.05;;;0.40;;
72319;SDS011;60269;52.502;16.732;2022-12-13T07:00:27;5.53;;;1.03;;
72319;SDS011;60269;52.502;16.732;2022-12-13T07:04:09;6.30;;;1.38;;
72319;SDS011;60269;52.502;16.732;2022-12-13T07:08:01;3.72;;;0.77;;
72319;SDS011;60269;52.502;16.732;2022-12-13T07:11:33;6.47;;;1.30;;
72319;SDS011;60269;52.502;16.732;2022-12-13T07:15:05;3.95;;;0.88;;
72319;SDS011;60269;52.502;16.732;2022-12-13T07:18:38;3.78;;;0.88;;
72319;SDS011;60269;52.502;16.732;2022-12-13T07:22:10;3.13;;;0.77;;
72319;SDS011;60269;52.502;16.732;2022-12-13T07:25:49;12.63;;;1.40;;
72319;SDS011;60269;52.502;16.732;2022-12-13T07:29:23;2.60;;;0.80;;
72319;SDS011;60269;52.502;16.732;2022-12-13T07:32:55;3.40;;;1.05;;
72319;SDS011;60269;52.502;16.732;2022-12-13T07:36:27;2.00;;;0.47;;
72319;SDS011;60269;52.502;16.732;2022-12-13T07:39:59;6.07;;;1.02;;
72319;SDS011;60269;52.502;16.732;2022-12-13T07:43:35;3.10;;;0.75;;
72319;SDS011;60269;52.502;16.732;2022-12-13T07:47:07;7.10;;;1.20;;
72319;SDS011;60269;52.502;16.732;2022-12-13T07:50:39;6.82;;;1.25;;
72319;SDS011;60269;52.502;16.732;2022-12-13T07:54:11;4.10;;;0.75;;
72319;SDS011;60269;52.502;16.732;2022-12-13T07:57:43;2.33;;;0.50;;
72319;SDS011;60269;52.502;16.732;2022-12-13T08:01:16;1.73;;;0.45;;
72319;SDS011;60269;52.502;16.732;2022-12-13T08:04:49;6.72;;;1.25;;
72319;SDS011;60269;52.502;16.732;2022-12-13T08:08:25;2.10;;;0.30;;
72319;SDS011;60269;52.502;16.732;2022-12-13T08:12:02;2.33;;;0.50;;
72319;SDS011;60269;52.502;16.732;2022-12-13T08:15:36;4.45;;;0.77;;
72319;SDS011;60269;52.502;16.732;2022-12-13T08:19:08;4.20;;;0.90;;
72319;SDS011;60269;52.502;16.732;2022-12-13T08:22:40;4.63;;;0.60;;
72319;SDS011;60269;52.502;16.732;2022-12-13T08:26:19;4.80;;;0.90;;
72319;SDS011;60269;52.502;16.732;2022-12-13T08:29:53;6.72;;;1.58;;
72319;SDS011;60269;52.502;16.732;2022-12-13T08:33:25;6.57;;;1.63;;
72319;SDS011;60269;52.502;16.732;2022-12-13T08:36:57;5.55;;;1.08;;
72319;SDS011;60269;52.502;16.732;2022-12-13T08:40:33;4.03;;;1.17;;
72319;SDS011;60269;52.502;16.732;2022-12-13T08:44:05;5.45;;;1.23;;
72319;SDS011;60269;52.502;16.732;2022-12-13T08:47:37;3.43;;;0.87;;
72319;SDS011;60269;52.502;16.732;2022-12-13T08:51:13;6.40;;;0.82;;
72319;SDS011;60269;52.502;16.732;2022-12-13T08:54:55;4.15;;;0.73;;
72319;SDS011;60269;52.502;16.732;2022-12-13T08:58:27;8.43;;;0.80;;
72319;SDS011;60269;52.502;16.732;2022-12-13T09:01:59;10.23;;;2.30;;
72319;SDS011;60269;52.502;16.732;2022-12-13T09:05:36;3.63;;;1.15;;
72319;SDS011;60269;52.502;16.732;2022-12-13T09:09:08;2.53;;;0.67;;
72319;SDS011;60269;52.502;16.732;2022-12-13T09:12:40;8.38;;;1.40;;
72319;SDS011;60269;52.502;16.732;2022-12-13T09:16:14;5.82;;;1.55;;
72319;SDS011;60269;52.502;16.732;2022-12-13T09:19:54;6.13;;;1.42;;
72319;SDS011;60269;52.502;16.732;2022-12-13T09:23:28;5.63;;;1.40;;
72319;SDS011;60269;52.502;16.732;2022-12-13T09:27:06;6.43;;;1.58;;
72319;SDS011;60269;52.502;16.732;2022-12-13T09:30:40;5.43;;;1.45;;
72319;SDS011;60269;52.502;16.732;2022-12-13T09:34:12;9.30;;;2.37;;
72319;SDS011;60269;52.502;16.732;2022-12-13T09:37:44;7.03;;;1.75;;
72319;SDS011;60269;52.502;16.732;2022-12-13T09:41:24;3.78;;;0.88;;
72319;SDS011;60269;52.502;16.732;2022-12-13T09:45:04;3.60;;;1.00;;
72319;SDS011;60269;52.502;16.732;2022-12-13T09:48:57;4.25;;;0.82;;
72319;SDS011;60269;52.502;16.732;2022-12-13T09:52:37;5.43;;;1.23;;
72319;SDS011;60269;52.502;16.732;2022-12-13T09:56:11;7.15;;;1.90;;
72319;SDS011;60269;52.502;16.732;2022-12-13T09:59:43;4.53;;;1.63;;
72319;SDS011;60269;52.502;16.732;2022-12-13T10:03:16;7.57;;;1.60;;
72319;SDS011;60269;52.502;16.732;2022-12-13T10:06:51;7.05;;;0.85;;
72319;SDS011;60269;52.502;16.732;2022-12-13T10:10:24;3.23;;;0.97;;
72319;SDS011;60269;52.502;16.732;2022-12-13T10:13:58;5.15;;;1.40;;
72319;SDS011;60269;52.502;16.732;2022-12-13T10:17:35;2.20;;;0.43;;
72319;SDS011;60269;52.502;16.732;2022-12-13T10:25:02;5.68;;;1.33;;
72319;SDS011;60269;52.502;16.732;2022-12-13T10:28:36;4.25;;;1.42;;
72319;SDS011;60269;52.502;16.732;2022-12-13T10:32:11;4.53;;;0.95;;
72319;SDS011;60269;52.502;16.732;2022-12-13T10:35:44;6.63;;;1.00;;
72319;SDS011;60269;52.502;16.732;2022-12-13T10:39:41;6.95;;;1.42;;
72319;SDS011;60269;52.502;16.732;2022-12-13T10:43:15;7.47;;;1.98;;
72319;SDS011;60269;52.502;16.732;2022-12-13T10:46:58;2.27;;;0.50;;
72319;SDS011;60269;52.502;16.732;2022-12-13T10:50:33;3.30;;;0.80;;
72319;SDS011;60269;52.502;16.732;2022-12-13T10:54:10;7.00;;;1.73;;
72319;SDS011;60269;52.502;16.732;2022-12-13T10:57:58;4.77;;;1.23;;
72319;SDS011;60269;52.502;16.732;2022-12-13T11:01:38;6.00;;;1.10;;
72319;SDS011;60269;52.502;16.732;2022-12-13T11:09:11;4.68;;;1.27;;
72319;SDS011;60269;52.502;16.732;2022-12-13T11:12:58;8.63;;;2.07;;
72319;SDS011;60269;52.502;16.732;2022-12-13T11:16:33;5.53;;;1.80;;
72319;SDS011;60269;52.502;16.732;2022-12-13T11:20:16;10.18;;;1.95;;
72319;SDS011;60269;52.502;16.732;2022-12-13T11:23:53;7.00;;;1.90;;
72319;SDS011;60269;52.502;16.732;2022-12-13T11:35:16;1.63;;;0.50;;
72319;SDS011;60269;52.502;16.732;2022-12-13T11:42:44;6.80;;;2.00;;
72319;SDS011;60269;52.502;16.732;2022-12-13T11:46:37;8.88;;;2.42;;
72319;SDS011;60269;52.502;16.732;2022-12-13T11:50:14;8.77;;;1.87;;
72319;SDS011;60269;52.502;16.732;2022-12-13T11:54:07;6.47;;;1.38;;
72319;SDS011;60269;52.502;16.732;2022-12-13T11:58:03;7.35;;;2.10;;
72319;SDS011;60269;52.502;16.732;2022-12-13T12:02:19;9.80;;;1.50;;
72319;SDS011;60269;52.502;16.732;2022-12-13T12:09:50;15.40;;;2.28;;
72319;SDS011;60269;52.502;16.732;2022-12-13T12:13:30;9.27;;;2.07;;
72319;SDS011;60269;52.502;16.732;2022-12-13T12:17:23;5.75;;;1.50;;
72319;SDS011;60269;52.502;16.732;2022-12-13T12:24:34;5.05;;;1.50;;
72319;SDS011;60269;52.502;16.732;2022-12-13T12:32:18;6.03;;;1.70;;
72319;SDS011;60269;52.502;16.732;2022-12-13T12:43:39;3.72;;;0.80;;
72319;SDS011;60269;52.502;16.732;2022-12-13T12:51:18;4.70;;;1.07;;
72319;SDS011;60269;52.502;16.732;2022-12-13T12:54:55;8.20;;;1.60;;
72319;SDS011;60269;52.502;16.732;2022-12-13T12:58:51;6.30;;;2.20;;
72319;SDS011;60269;52.502;16.732;2022-12-13T13:02:27;7.57;;;1.92;;
72319;SDS011;60269;52.502;16.732;2022-12-13T13:06:32;9.13;;;1.60;;
72319;SDS011;60269;52.502;16.732;2022-12-13T13:10:08;4.70;;;1.23;;
72319;SDS011;60269;52.502;16.732;2022-12-13T13:28:42;5.93;;;1.63;;
72319;SDS011;60269;52.502;16.732;2022-12-13T13:36:00;4.82;;;1.73;;
72319;SDS011;60269;52.502;16.732;2022-12-13T14:02:00;7.43;;;1.60;;
72319;SDS011;60269;52.502;16.732;2022-12-13T14:17:32;7.63;;;1.90;;
72319;SDS011;60269;52.502;16.732;2022-12-13T14:21:33;6.97;;;2.03;;
72319;SDS011;60269;52.502;16.732;2022-12-13T14:25:34;8.60;;;1.77;;
72319;SDS011;60269;52.502;16.732;2022-12-13T14:29:32;5.95;;;1.42;;
72319;SDS011;60269;52.502;16.732;2022-12-13T14:33:19;6.17;;;1.53;;
72319;SDS011;60269;52.502;16.732;2022-12-13T14:36:54;5.88;;;1.60;;
72319;SDS011;60269;52.502;16.732;2022-12-13T14:40:35;3.40;;;0.85;;
72319;SDS011;60269;52.502;16.732;2022-12-13T14:44:21;5.70;;;1.33;;
72319;SDS011;60269;52.502;16.732;2022-12-13T14:47:56;9.30;;;2.08;;
72319;SDS011;60269;52.502;16.732;2022-12-13T14:51:31;9.57;;;2.25;;
72319;SDS011;60269;52.502;16.732;2022-12-13T14:55:06;10.10;;;1.83;;
72319;SDS011;60269;52.502;16.732;2022-12-13T14:59:01;8.70;;;2.13;;
72319;SDS011;60269;52.502;16.732;2022-12-13T15:02:48;8.73;;;2.17;;
72319;SDS011;60269;52.502;16.732;2022-12-13T15:06:23;8.30;;;1.98;;
72319;SDS011;60269;52.502;16.732;2022-12-13T15:09:56;10.33;;;2.30;;
72319;SDS011;60269;52.502;16.732;2022-12-13T15:13:38;10.60;;;2.95;;
72319;SDS011;60269;52.502;16.732;2022-12-13T15:21:00;15.37;;;3.73;;
72319;SDS011;60269;52.502;16.732;2022-12-13T15:24:40;12.05;;;2.47;;
72319;SDS011;60269;52.502;16.732;2022-12-13T15:28:20;14.10;;;3.70;;
72319;SDS011;60269;52.502;16.732;2022-12-13T15:31:52;9.52;;;2.17;;
72319;SDS011;60269;52.502;16.732;2022-12-13T15:35:25;8.77;;;2.00;;
72319;SDS011;60269;52.502;16.732;2022-12-13T15:38:58;8.80;;;3.20;;
72319;SDS011;60269;52.502;16.732;2022-12-13T15:42:33;12.63;;;3.00;;
72319;SDS011;60269;52.502;16.732;2022-12-13T15:46:07;10.00;;;2.57;;
72319;SDS011;60269;52.502;16.732;2022-12-13T15:49:44;13.02;;;3.30;;
72319;SDS011;60269;52.502;16.732;2022-12-13T15:53:25;11.18;;;2.72;;
72319;SDS011;60269;52.502;16.732;2022-12-13T15:57:21;11.83;;;2.90;;
72319;SDS011;60269;52.502;16.732;2022-12-13T16:00:59;14.18;;;2.78;;
72319;SDS011;60269;52.502;16.732;2022-12-13T16:04:35;14.10;;;3.00;;
72319;SDS011;60269;52.502;16.732;2022-12-13T16:08:17;15.55;;;4.05;;
72319;SDS011;60269;52.502;16.732;2022-12-13T16:11:59;17.17;;;4.23;;
72319;SDS011;60269;52.502;16.732;2022-12-13T16:15:47;10.27;;;2.95;;
72319;SDS011;60269;52.502;16.732;2022-12-13T16:19:20;8.85;;;2.45;;
72319;SDS011;60269;52.502;16.732;2022-12-13T16:22:53;14.10;;;2.67;;
72319;SDS011;60269;52.502;16.732;2022-12-13T16:26:30;12.77;;;3.60;;
72319;SDS011;60269;52.502;16.732;2022-12-13T16:30:10;13.48;;;3.05;;
72319;SDS011;60269;52.502;16.732;2022-12-13T16:33:42;6.13;;;1.67;;
72319;SDS011;60269;52.502;16.732;2022-12-13T16:37:15;8.98;;;2.35;;
72319;SDS011;60269;52.502;16.732;2022-12-13T16:40:58;8.27;;;2.75;;
72319;SDS011;60269;52.502;16.732;2022-12-13T16:44:40;10.13;;;3.72;;
72319;SDS011;60269;52.502;16.732;2022-12-13T16:48:12;14.53;;;3.57;;
72319;SDS011;60269;52.502;16.732;2022-12-13T16:51:45;11.80;;;2.60;;
72319;SDS011;60269;52.502;16.732;2022-12-13T16:55:19;10.68;;;2.60;;
72319;SDS011;60269;52.502;16.732;2022-12-13T16:58:51;15.20;;;3.07;;
72319;SDS011;60269;52.502;16.732;2022-12-13T17:02:23;15.30;;;3.42;;
72319;SDS011;60269;52.502;16.732;2022-12-13T17:05:56;11.25;;;3.28;;
72319;SDS011;60269;52.502;16.732;2022-12-13T17:09:32;20.03;;;3.90;;
72319;SDS011;60269;52.502;16.732;2022-12-13T17:13:05;12.13;;;3.60;;
72319;SDS011;60269;52.502;16.732;2022-12-13T17:16:37;11.45;;;2.45;;
72319;SDS011;60269;52.502;16.732;2022-12-13T17:20:10;7.90;;;2.10;;
72319;SDS011;60269;52.502;16.732;2022-12-13T17:23:45;9.93;;;2.43;;
72319;SDS011;60269;52.502;16.732;2022-12-13T17:27:17;13.52;;;2.55;;
72319;SDS011;60269;52.502;16.732;2022-12-13T17:30:49;10.40;;;3.05;;
72319;SDS011;60269;52.502;16.732;2022-12-13T17:34:25;9.87;;;2.47;;
72319;SDS011;60269;52.502;16.732;2022-12-13T17:37:57;11.95;;;2.45;;
72319;SDS011;60269;52.502;16.732;2022-12-13T17:41:29;13.48;;;2.72;;
72319;SDS011;60269;52.502;16.732;2022-12-13T17:45:01;9.97;;;1.93;;
72319;SDS011;60269;52.502;16.732;2022-12-13T17:48:34;9.55;;;2.70;;
72319;SDS011;60269;52.502;16.732;2022-12-13T17:52:11;12.38;;;2.70;;
72319;SDS011;60269;52.502;16.732;2022-12-13T17:55:43;7.28;;;2.67;;
72319;SDS011;60269;52.502;16.732;2022-12-13T17:59:16;12.30;;;3.20;;
72319;SDS011;60269;52.502;16.732;2022-12-13T18:02:49;8.07;;;2.20;;
72319;SDS011;60269;52.502;16.732;2022-12-13T18:06:26;6.43;;;1.50;;
72319;SDS011;60269;52.502;16.732;2022-12-13T18:09:58;7.77;;;1.93;;
72319;SDS011;60269;52.502;16.732;2022-12-13T18:13:30;14.02;;;2.47;;
72319;SDS011;60269;52.502;16.732;2022-12-13T18:17:02;8.85;;;2.22;;
72319;SDS011;60269;52.502;16.732;2022-12-13T18:20:34;10.07;;;3.17;;
72319;SDS011;60269;52.502;16.732;2022-12-13T18:24:07;11.55;;;2.33;;
72319;SDS011;60269;52.502;16.732;2022-12-13T18:27:40;15.50;;;4.00;;
72319;SDS011;60269;52.502;16.732;2022-12-13T18:31:16;10.40;;;3.25;;
72319;SDS011;60269;52.502;16.732;2022-12-13T18:34:50;12.17;;;3.70;;
72319;SDS011;60269;52.502;16.732;2022-12-13T18:38:25;13.82;;;3.78;;
72319;SDS011;60269;52.502;16.732;2022-12-13T18:42:06;20.70;;;5.00;;
72319;SDS011;60269;52.502;16.732;2022-12-13T18:45:38;15.40;;;4.07;;
72319;SDS011;60269;52.502;16.732;2022-12-13T18:49:10;15.60;;;4.90;;
72319;SDS011;60269;52.502;16.732;2022-12-13T18:52:42;17.88;;;4.55;;
72319;SDS011;60269;52.502;16.732;2022-12-13T18:56:14;20.37;;;5.03;;
72319;SDS011;60269;52.502;16.732;2022-12-13T18:59:50;21.98;;;6.07;;
72319;SDS011;60269;52.502;16.732;2022-12-13T19:03:25;18.40;;;5.28;;
72319;SDS011;60269;52.502;16.732;2022-12-13T19:06:58;14.73;;;5.43;;
72319;SDS011;60269;52.502;16.732;2022-12-13T19:10:31;15.43;;;5.63;;
72319;SDS011;60269;52.502;16.732;2022-12-13T19:14:03;19.13;;;5.07;;
72319;SDS011;60269;52.502;16.732;2022-12-13T19:17:35;20.30;;;5.82;;
72319;SDS011;60269;52.502;16.732;2022-12-13T19:21:08;20.83;;;6.40;;
72319;SDS011;60269;52.502;16.732;2022-12-13T19:24:42;21.35;;;5.65;;
72319;SDS011;60269;52.502;16.732;2022-12-13T19:28:15;16.25;;;4.28;;
72319;SDS011;60269;52.502;16.732;2022-12-13T19:31:48;19.17;;;4.43;;
72319;SDS011;60269;52.502;16.732;2022-12-13T19:35:20;14.30;;;4.43;;
72319;SDS011;60269;52.502;16.732;2022-12-13T19:38:53;17.80;;;5.70;;
72319;SDS011;60269;52.502;16.732;2022-12-13T19:42:26;13.82;;;4.95;;
72319;SDS011;60269;52.502;16.732;2022-12-13T19:45:59;18.07;;;4.33;;
72319;SDS011;60269;52.502;16.732;2022-12-13T19:49:31;11.95;;;3.35;;
72319;SDS011;60269;52.502;16.732;2022-12-13T19:53:03;16.67;;;4.82;;
72319;SDS011;60269;52.502;16.732;2022-12-13T19:56:36;8.97;;;3.07;;
72319;SDS011;60269;52.502;16.732;2022-12-13T20:00:09;11.00;;;4.47;;
72319;SDS011;60269;52.502;16.732;2022-12-13T20:03:42;12.98;;;4.78;;
72319;SDS011;60269;52.502;16.732;2022-12-13T20:07:16;17.90;;;4.97;;
72319;SDS011;60269;52.502;16.732;2022-12-13T20:10:48;11.93;;;4.10;;
72319;SDS011;60269;52.502;16.732;2022-12-13T20:14:31;13.52;;;4.38;;
72319;SDS011;60269;52.502;16.732;2022-12-13T20:18:03;12.13;;;2.95;;
72319;SDS011;60269;52.502;16.732;2022-12-13T20:21:34;18.47;;;4.20;;
72319;SDS011;60269;52.502;16.732;2022-12-13T20:25:07;13.82;;;3.72;;
72319;SDS011;60269;52.502;16.732;2022-12-13T20:28:40;19.65;;;4.65;;
72319;SDS011;60269;52.502;16.732;2022-12-13T20:32:12;14.23;;;4.57;;
72319;SDS011;60269;52.502;16.732;2022-12-13T20:35:45;12.85;;;4.05;;
72319;SDS011;60269;52.502;16.732;2022-12-13T20:39:37;13.13;;;3.53;;
72319;SDS011;60269;52.502;16.732;2022-12-13T20:43:09;12.50;;;4.47;;
72319;SDS011;60269;52.502;16.732;2022-12-13T20:46:41;16.55;;;3.33;;
72319;SDS011;60269;52.502;16.732;2022-12-13T20:50:13;11.00;;;2.83;;
72319;SDS011;60269;52.502;16.732;2022-12-13T20:53:47;13.65;;;3.47;;
72319;SDS011;60269;52.502;16.732;2022-12-13T20:57:20;12.80;;;4.33;;
72319;SDS011;60269;52.502;16.732;2022-12-13T21:00:52;8.95;;;3.83;;
72319;SDS011;60269;52.502;16.732;2022-12-13T21:04:24;12.65;;;4.68;;
72319;SDS011;60269;52.502;16.732;2022-12-13T21:07:58;9.67;;;3.00;;
72319;SDS011;60269;52.502;16.732;2022-12-13T21:11:48;18.95;;;6.30;;
72319;SDS011;60269;52.502;16.732;2022-12-13T21:15:21;18.52;;;7.50;;
72319;SDS011;60269;52.502;16.732;2022-12-13T21:18:53;27.10;;;6.97;;
72319;SDS011;60269;52.502;16.732;2022-12-13T21:22:27;25.05;;;8.05;;
72319;SDS011;60269;52.502;16.732;2022-12-13T21:25:58;23.08;;;7.95;;
72319;SDS011;60269;52.502;16.732;2022-12-13T21:29:30;22.42;;;7.53;;
72319;SDS011;60269;52.502;16.732;2022-12-13T21:33:02;27.43;;;7.67;;
72319;SDS011;60269;52.502;16.732;2022-12-13T21:36:35;23.70;;;7.43;;
72319;SDS011;60269;52.502;16.732;2022-12-13T21:40:08;25.33;;;8.45;;
72319;SDS011;60269;52.502;16.732;2022-12-13T21:43:41;30.83;;;10.20;;
72319;SDS011;60269;52.502;16.732;2022-12-13T21:47:18;32.55;;;9.60;;
72319;SDS011;60269;52.502;16.732;2022-12-13T21:50:50;31.63;;;10.85;;
72319;SDS011;60269;52.502;16.732;2022-12-13T21:54:22;30.73;;;12.17;;
72319;SDS011;60269;52.502;16.732;2022-12-13T21:57:54;37.53;;;11.93;;
72319;SDS011;60269;52.502;16.732;2022-12-13T22:05:38;41.80;;;13.57;;
72319;SDS011;60269;52.502;16.732;2022-12-13T22:09:09;44.13;;;12.50;;
72319;SDS011;60269;52.502;16.732;2022-12-13T22:12:41;50.33;;;13.25;;
72319;SDS011;60269;52.502;16.732;2022-12-13T22:16:13;36.60;;;12.60;;
72319;SDS011;60269;52.502;16.732;2022-12-13T22:19:46;39.87;;;11.03;;
72319;SDS011;60269;52.502;16.732;2022-12-13T22:23:19;30.35;;;10.52;;
72319;SDS011;60269;52.502;16.732;2022-12-13T22:26:51;33.83;;;11.23;;
72319;SDS011;60269;52.502;16.732;2022-12-13T22:30:25;33.83;;;12.20;;
72319;SDS011;60269;52.502;16.732;2022-12-13T22:33:57;31.83;;;11.82;;
72319;SDS011;60269;52.502;16.732;2022-12-13T22:37:29;37.25;;;11.73;;
72319;SDS011;60269;52.502;16.732;2022-12-13T22:41:02;30.92;;;10.13;;
72319;SDS011;60269;52.502;16.732;2022-12-13T22:44:35;30.77;;;9.87;;
72319;SDS011;60269;52.502;16.732;2022-12-13T22:48:08;34.38;;;12.13;;
72319;SDS011;60269;52.502;16.732;2022-12-13T22:51:40;31.52;;;11.73;;
72319;SDS011;60269;52.502;16.732;2022-12-13T22:55:12;39.63;;;11.60;;
72319;SDS011;60269;52.502;16.732;2022-12-13T22:58:44;28.20;;;10.50;;
72319;SDS011;60269;52.502;16.732;2022-12-13T23:02:16;39.78;;;12.48;;
72319;SDS011;60269;52.502;16.732;2022-12-13T23:05:48;38.70;;;13.57;;
72319;SDS011;60269;52.502;16.732;2022-12-13T23:09:20;33.60;;;13.18;;
72319;SDS011;60269;52.502;16.732;2022-12-13T23:12:52;32.92;;;12.45;;
72319;SDS011;60269;52.502;16.732;2022-12-13T23:16:35;45.22;;;14.32;;
72319;SDS011;60269;52.502;16.732;2022-12-13T23:20:08;55.23;;;15.93;;
72319;SDS011;60269;52.502;16.732;2022-12-13T23:23:40;47.90;;;16.73;;